sensor_id;sensor_type;location;lat;lon;timestamp;P1;durP1;ratioP1;P2;durP2;ratioP2
75616;SDS011;64200;55.426;37.758;2023-05-10T00:03:38;10.43;;;6.65;;
75616;SDS011;64200;55.426;37.758;2023-05-10T00:08:40;9.95;;;5.50;;
75616;SDS011;64200;55.426;37.758;2023-05-10T00:13:40;10.63;;;5.07;;
75616;SDS011;64200;55.426;37.758;2023-05-10T00:18:41;9.57;;;5.37;;
75616;SDS011;64200;55.426;37.758;2023-05-10T00:23:42;11.63;;;5.68;;
75616;SDS011;64200;55.426;37.758;2023-05-10T00:28:42;8.63;;;4.83;;
75616;SDS011;64200;55.426;37.758;2023-05-10T00:33:43;9.82;;;5.32;;
75616;SDS011;64200;55.426;37.758;2023-05-10T00:38:46;12.55;;;6.15;;
75616;SDS011;64200;55.426;37.758;2023-05-10T00:43:47;13.80;;;6.05;;
75616;SDS011;64200;55.426;37.758;2023-05-10T00:48:49;10.70;;;6.40;;
75616;SDS011;64200;55.426;37.758;2023-05-10T00:53:50;15.10;;;6.93;;
75616;SDS011;64200;55.426;37.758;2023-05-10T00:58:51;15.23;;;6.03;;
75616;SDS011;64200;55.426;37.758;2023-05-10T01:03:52;14.85;;;6.50;;
75616;SDS011;64200;55.426;37.758;2023-05-10T01:08:53;13.15;;;6.32;;
75616;SDS011;64200;55.426;37.758;2023-05-10T01:13:57;12.57;;;5.65;;
75616;SDS011;64200;55.426;37.758;2023-05-10T01:18:58;10.27;;;5.65;;
75616;SDS011;64200;55.426;37.758;2023-05-10T01:24:04;9.85;;;4.18;;
75616;SDS011;64200;55.426;37.758;2023-05-10T01:29:33;9.32;;;4.85;;
75616;SDS011;64200;55.426;37.758;2023-05-10T01:34:47;9.20;;;4.50;;
75616;SDS011;64200;55.426;37.758;2023-05-10T01:39:52;6.60;;;4.82;;
75616;SDS011;64200;55.426;37.758;2023-05-10T01:45:07;10.18;;;5.30;;
75616;SDS011;64200;55.426;37.758;2023-05-10T01:50:18;13.85;;;5.30;;
75616;SDS011;64200;55.426;37.758;2023-05-10T01:55:23;9.48;;;4.53;;
75616;SDS011;64200;55.426;37.758;2023-05-10T02:00:27;8.60;;;4.43;;
75616;SDS011;64200;55.426;37.758;2023-05-10T02:05:30;10.00;;;4.47;;
75616;SDS011;64200;55.426;37.758;2023-05-10T02:10:36;7.18;;;4.35;;
75616;SDS011;64200;55.426;37.758;2023-05-10T02:15:37;10.95;;;5.22;;
75616;SDS011;64200;55.426;37.758;2023-05-10T02:20:40;10.70;;;5.13;;
75616;SDS011;64200;55.426;37.758;2023-05-10T02:25:43;9.15;;;4.68;;
75616;SDS011;64200;55.426;37.758;2023-05-10T02:30:45;8.65;;;5.00;;
75616;SDS011;64200;55.426;37.758;2023-05-10T02:35:47;10.50;;;4.47;;
75616;SDS011;64200;55.426;37.758;2023-05-10T02:40:50;6.00;;;4.32;;
75616;SDS011;64200;55.426;37.758;2023-05-10T02:45:52;12.50;;;4.72;;
75616;SDS011;64200;55.426;37.758;2023-05-10T02:50:53;8.35;;;4.78;;
75616;SDS011;64200;55.426;37.758;2023-05-10T02:55:57;7.93;;;4.75;;
75616;SDS011;64200;55.426;37.758;2023-05-10T03:01:00;10.02;;;4.80;;
75616;SDS011;64200;55.426;37.758;2023-05-10T03:06:01;6.43;;;4.43;;
75616;SDS011;64200;55.426;37.758;2023-05-10T03:16:15;9.63;;;4.53;;
75616;SDS011;64200;55.426;37.758;2023-05-10T03:21:22;7.72;;;4.65;;
75616;SDS011;64200;55.426;37.758;2023-05-10T03:26:28;7.75;;;4.13;;
75616;SDS011;64200;55.426;37.758;2023-05-10T03:31:29;11.07;;;4.57;;
75616;SDS011;64200;55.426;37.758;2023-05-10T03:36:30;7.95;;;4.47;;
75616;SDS011;64200;55.426;37.758;2023-05-10T03:41:31;6.83;;;4.47;;
75616;SDS011;64200;55.426;37.758;2023-05-10T03:46:31;5.47;;;4.00;;
75616;SDS011;64200;55.426;37.758;2023-05-10T03:51:32;10.32;;;4.53;;
75616;SDS011;64200;55.426;37.758;2023-05-10T03:56:32;9.02;;;5.32;;
75616;SDS011;64200;55.426;37.758;2023-05-10T04:01:33;7.90;;;4.00;;
75616;SDS011;64200;55.426;37.758;2023-05-10T04:06:34;5.90;;;3.25;;
75616;SDS011;64200;55.426;37.758;2023-05-10T04:11:35;6.80;;;3.40;;
75616;SDS011;64200;55.426;37.758;2023-05-10T04:16:35;6.97;;;4.30;;
75616;SDS011;64200;55.426;37.758;2023-05-10T04:21:36;16.23;;;7.40;;
75616;SDS011;64200;55.426;37.758;2023-05-10T04:26:36;6.07;;;3.78;;
75616;SDS011;64200;55.426;37.758;2023-05-10T04:31:37;5.63;;;3.20;;
75616;SDS011;64200;55.426;37.758;2023-05-10T04:36:37;6.85;;;3.47;;
75616;SDS011;64200;55.426;37.758;2023-05-10T04:41:38;6.00;;;3.40;;
75616;SDS011;64200;55.426;37.758;2023-05-10T04:46:38;5.10;;;3.40;;
75616;SDS011;64200;55.426;37.758;2023-05-10T04:51:39;5.53;;;3.70;;
75616;SDS011;64200;55.426;37.758;2023-05-10T04:56:40;5.03;;;3.45;;
75616;SDS011;64200;55.426;37.758;2023-05-10T05:01:40;7.28;;;3.38;;
75616;SDS011;64200;55.426;37.758;2023-05-10T05:06:41;9.38;;;3.92;;
75616;SDS011;64200;55.426;37.758;2023-05-10T05:11:42;9.77;;;4.37;;
75616;SDS011;64200;55.426;37.758;2023-05-10T05:16:42;12.70;;;4.53;;
75616;SDS011;64200;55.426;37.758;2023-05-10T05:21:43;6.83;;;4.03;;
75616;SDS011;64200;55.426;37.758;2023-05-10T05:26:43;6.80;;;3.53;;
75616;SDS011;64200;55.426;37.758;2023-05-10T05:31:44;10.23;;;3.67;;
75616;SDS011;64200;55.426;37.758;2023-05-10T05:36:44;12.82;;;5.35;;
75616;SDS011;64200;55.426;37.758;2023-05-10T05:41:45;7.15;;;3.67;;
75616;SDS011;64200;55.426;37.758;2023-05-10T05:46:46;4.45;;;3.30;;
75616;SDS011;64200;55.426;37.758;2023-05-10T05:51:46;5.57;;;3.70;;
75616;SDS011;64200;55.426;37.758;2023-05-10T05:56:49;12.35;;;3.58;;
75616;SDS011;64200;55.426;37.758;2023-05-10T06:01:50;4.35;;;2.83;;
75616;SDS011;64200;55.426;37.758;2023-05-10T06:06:51;10.10;;;3.58;;
75616;SDS011;64200;55.426;37.758;2023-05-10T06:11:51;7.93;;;2.78;;
75616;SDS011;64200;55.426;37.758;2023-05-10T06:16:52;11.95;;;3.90;;
75616;SDS011;64200;55.426;37.758;2023-05-10T06:21:53;6.88;;;3.75;;
75616;SDS011;64200;55.426;37.758;2023-05-10T06:26:53;7.73;;;3.10;;
75616;SDS011;64200;55.426;37.758;2023-05-10T06:31:53;7.27;;;2.90;;
75616;SDS011;64200;55.426;37.758;2023-05-10T06:36:54;6.22;;;3.17;;
75616;SDS011;64200;55.426;37.758;2023-05-10T06:41:55;9.35;;;2.67;;
75616;SDS011;64200;55.426;37.758;2023-05-10T06:46:55;5.25;;;2.60;;
75616;SDS011;64200;55.426;37.758;2023-05-10T06:51:56;9.18;;;3.08;;
75616;SDS011;64200;55.426;37.758;2023-05-10T06:56:57;8.57;;;2.03;;
75616;SDS011;64200;55.426;37.758;2023-05-10T07:01:57;5.95;;;2.40;;
75616;SDS011;64200;55.426;37.758;2023-05-10T07:06:58;5.77;;;2.20;;
75616;SDS011;64200;55.426;37.758;2023-05-10T07:11:59;5.55;;;2.00;;
75616;SDS011;64200;55.426;37.758;2023-05-10T07:16:59;5.28;;;1.55;;
75616;SDS011;64200;55.426;37.758;2023-05-10T07:22:00;3.63;;;2.17;;
75616;SDS011;64200;55.426;37.758;2023-05-10T07:27:01;3.58;;;2.03;;
75616;SDS011;64200;55.426;37.758;2023-05-10T07:32:01;3.17;;;1.98;;
75616;SDS011;64200;55.426;37.758;2023-05-10T07:37:02;4.78;;;1.90;;
75616;SDS011;64200;55.426;37.758;2023-05-10T07:42:02;4.88;;;1.83;;
75616;SDS011;64200;55.426;37.758;2023-05-10T07:47:03;4.95;;;1.67;;
75616;SDS011;64200;55.426;37.758;2023-05-10T07:52:03;3.08;;;1.60;;
75616;SDS011;64200;55.426;37.758;2023-05-10T07:57:04;3.80;;;1.50;;
75616;SDS011;64200;55.426;37.758;2023-05-10T08:02:05;2.95;;;1.40;;
75616;SDS011;64200;55.426;37.758;2023-05-10T08:07:06;3.92;;;1.60;;
75616;SDS011;64200;55.426;37.758;2023-05-10T08:12:07;6.18;;;1.95;;
75616;SDS011;64200;55.426;37.758;2023-05-10T08:17:08;4.37;;;1.90;;
75616;SDS011;64200;55.426;37.758;2023-05-10T08:22:09;3.47;;;1.50;;
75616;SDS011;64200;55.426;37.758;2023-05-10T08:27:10;1.77;;;1.00;;
75616;SDS011;64200;55.426;37.758;2023-05-10T08:32:10;2.05;;;1.30;;
75616;SDS011;64200;55.426;37.758;2023-05-10T08:37:11;3.53;;;1.20;;
75616;SDS011;64200;55.426;37.758;2023-05-10T08:42:13;2.80;;;1.65;;
75616;SDS011;64200;55.426;37.758;2023-05-10T08:47:17;4.82;;;2.65;;
75616;SDS011;64200;55.426;37.758;2023-05-10T08:52:18;3.35;;;1.33;;
75616;SDS011;64200;55.426;37.758;2023-05-10T08:57:20;1.88;;;1.30;;
75616;SDS011;64200;55.426;37.758;2023-05-10T09:02:21;3.38;;;1.33;;
75616;SDS011;64200;55.426;37.758;2023-05-10T09:07:23;4.40;;;1.15;;
75616;SDS011;64200;55.426;37.758;2023-05-10T09:12:24;2.50;;;1.70;;
75616;SDS011;64200;55.426;37.758;2023-05-10T09:17:24;4.45;;;1.33;;
75616;SDS011;64200;55.426;37.758;2023-05-10T09:22:26;2.28;;;1.40;;
75616;SDS011;64200;55.426;37.758;2023-05-10T09:27:27;3.88;;;1.48;;
75616;SDS011;64200;55.426;37.758;2023-05-10T09:37:45;2.80;;;1.48;;
75616;SDS011;64200;55.426;37.758;2023-05-10T09:43:02;3.13;;;1.38;;
75616;SDS011;64200;55.426;37.758;2023-05-10T09:48:06;5.85;;;1.55;;
75616;SDS011;64200;55.426;37.758;2023-05-10T09:53:07;2.47;;;1.35;;
75616;SDS011;64200;55.426;37.758;2023-05-10T09:58:07;2.55;;;1.25;;
75616;SDS011;64200;55.426;37.758;2023-05-10T10:03:14;3.58;;;1.80;;
75616;SDS011;64200;55.426;37.758;2023-05-10T10:08:17;5.13;;;1.83;;
75616;SDS011;64200;55.426;37.758;2023-05-10T10:13:18;3.63;;;1.50;;
75616;SDS011;64200;55.426;37.758;2023-05-10T10:18:19;3.65;;;1.83;;
75616;SDS011;64200;55.426;37.758;2023-05-10T10:23:23;3.20;;;1.90;;
75616;SDS011;64200;55.426;37.758;2023-05-10T10:28:26;4.93;;;2.42;;
75616;SDS011;64200;55.426;37.758;2023-05-10T10:33:40;2.55;;;1.88;;
75616;SDS011;64200;55.426;37.758;2023-05-10T10:39:13;5.05;;;1.75;;
75616;SDS011;64200;55.426;37.758;2023-05-10T10:54:40;2.40;;;1.20;;
75616;SDS011;64200;55.426;37.758;2023-05-10T10:59:42;2.30;;;1.45;;
75616;SDS011;64200;55.426;37.758;2023-05-10T11:04:44;2.75;;;1.67;;
75616;SDS011;64200;55.426;37.758;2023-05-10T11:09:49;3.25;;;1.65;;
75616;SDS011;64200;55.426;37.758;2023-05-10T11:14:50;5.47;;;1.90;;
75616;SDS011;64200;55.426;37.758;2023-05-10T11:20:13;3.55;;;1.50;;
75616;SDS011;64200;55.426;37.758;2023-05-10T11:25:14;3.67;;;1.77;;
75616;SDS011;64200;55.426;37.758;2023-05-10T11:30:15;8.80;;;2.05;;
75616;SDS011;64200;55.426;37.758;2023-05-10T11:35:16;5.43;;;2.42;;
75616;SDS011;64200;55.426;37.758;2023-05-10T11:40:17;4.50;;;2.05;;
75616;SDS011;64200;55.426;37.758;2023-05-10T11:45:17;5.22;;;2.10;;
75616;SDS011;64200;55.426;37.758;2023-05-10T11:50:18;4.15;;;2.08;;
75616;SDS011;64200;55.426;37.758;2023-05-10T11:55:19;5.88;;;1.90;;
75616;SDS011;64200;55.426;37.758;2023-05-10T12:00:20;5.28;;;2.10;;
75616;SDS011;64200;55.426;37.758;2023-05-10T12:05:20;3.83;;;2.00;;
75616;SDS011;64200;55.426;37.758;2023-05-10T12:10:25;6.97;;;3.00;;
75616;SDS011;64200;55.426;37.758;2023-05-10T12:15:27;6.15;;;2.38;;
75616;SDS011;64200;55.426;37.758;2023-05-10T12:20:28;5.57;;;2.53;;
75616;SDS011;64200;55.426;37.758;2023-05-10T12:25:30;8.25;;;3.45;;
75616;SDS011;64200;55.426;37.758;2023-05-10T12:30:33;4.65;;;2.00;;
75616;SDS011;64200;55.426;37.758;2023-05-10T12:35:44;4.03;;;1.85;;
75616;SDS011;64200;55.426;37.758;2023-05-10T12:40:46;3.75;;;1.90;;
75616;SDS011;64200;55.426;37.758;2023-05-10T12:45:47;3.38;;;2.10;;
75616;SDS011;64200;55.426;37.758;2023-05-10T12:50:48;5.30;;;2.30;;
75616;SDS011;64200;55.426;37.758;2023-05-10T12:55:49;6.35;;;2.40;;
75616;SDS011;64200;55.426;37.758;2023-05-10T13:00:50;11.38;;;3.15;;
75616;SDS011;64200;55.426;37.758;2023-05-10T13:05:51;8.30;;;2.45;;
75616;SDS011;64200;55.426;37.758;2023-05-10T13:10:52;3.63;;;2.53;;
75616;SDS011;64200;55.426;37.758;2023-05-10T13:15:53;2.92;;;2.03;;
75616;SDS011;64200;55.426;37.758;2023-05-10T13:20:53;3.25;;;2.35;;
75616;SDS011;64200;55.426;37.758;2023-05-10T13:25:55;3.05;;;1.95;;
75616;SDS011;64200;55.426;37.758;2023-05-10T13:30:56;6.07;;;2.67;;
75616;SDS011;64200;55.426;37.758;2023-05-10T13:35:56;6.95;;;2.53;;
75616;SDS011;64200;55.426;37.758;2023-05-10T13:40:57;5.97;;;2.00;;
75616;SDS011;64200;55.426;37.758;2023-05-10T13:45:57;5.32;;;2.00;;
75616;SDS011;64200;55.426;37.758;2023-05-10T13:50:58;3.58;;;1.95;;
75616;SDS011;64200;55.426;37.758;2023-05-10T13:55:59;6.72;;;2.40;;
75616;SDS011;64200;55.426;37.758;2023-05-10T14:00:59;3.17;;;2.22;;
75616;SDS011;64200;55.426;37.758;2023-05-10T14:06:00;5.63;;;2.95;;
75616;SDS011;64200;55.426;37.758;2023-05-10T14:11:01;2.30;;;1.77;;
75616;SDS011;64200;55.426;37.758;2023-05-10T14:16:01;3.15;;;2.22;;
75616;SDS011;64200;55.426;37.758;2023-05-10T14:21:02;4.78;;;1.67;;
75616;SDS011;64200;55.426;37.758;2023-05-10T14:26:03;3.67;;;1.92;;
75616;SDS011;64200;55.426;37.758;2023-05-10T14:31:04;4.38;;;2.08;;
75616;SDS011;64200;55.426;37.758;2023-05-10T14:36:06;6.80;;;2.17;;
75616;SDS011;64200;55.426;37.758;2023-05-10T14:41:07;4.55;;;1.70;;
75616;SDS011;64200;55.426;37.758;2023-05-10T14:46:07;4.40;;;1.90;;
75616;SDS011;64200;55.426;37.758;2023-05-10T14:51:08;2.85;;;1.60;;
75616;SDS011;64200;55.426;37.758;2023-05-10T14:56:09;6.53;;;1.67;;
75616;SDS011;64200;55.426;37.758;2023-05-10T15:01:10;7.20;;;2.70;;
75616;SDS011;64200;55.426;37.758;2023-05-10T15:06:13;3.05;;;2.10;;
75616;SDS011;64200;55.426;37.758;2023-05-10T15:11:15;6.93;;;2.55;;
75616;SDS011;64200;55.426;37.758;2023-05-10T15:16:16;2.88;;;1.98;;
75616;SDS011;64200;55.426;37.758;2023-05-10T15:21:17;3.65;;;2.25;;
75616;SDS011;64200;55.426;37.758;2023-05-10T15:26:17;5.03;;;2.22;;
75616;SDS011;64200;55.426;37.758;2023-05-10T15:31:18;5.97;;;3.00;;
75616;SDS011;64200;55.426;37.758;2023-05-10T15:36:19;5.45;;;2.85;;
75616;SDS011;64200;55.426;37.758;2023-05-10T15:41:20;3.42;;;1.77;;
75616;SDS011;64200;55.426;37.758;2023-05-10T15:46:21;2.53;;;2.00;;
75616;SDS011;64200;55.426;37.758;2023-05-10T15:51:22;4.85;;;1.77;;
75616;SDS011;64200;55.426;37.758;2023-05-10T15:56:22;4.40;;;2.05;;
75616;SDS011;64200;55.426;37.758;2023-05-10T16:01:26;7.90;;;2.15;;
75616;SDS011;64200;55.426;37.758;2023-05-10T16:06:27;4.80;;;2.38;;
75616;SDS011;64200;55.426;37.758;2023-05-10T16:11:28;4.38;;;1.77;;
75616;SDS011;64200;55.426;37.758;2023-05-10T16:16:28;4.10;;;2.28;;
75616;SDS011;64200;55.426;37.758;2023-05-10T16:21:29;4.05;;;2.03;;
75616;SDS011;64200;55.426;37.758;2023-05-10T16:26:33;4.40;;;2.00;;
75616;SDS011;64200;55.426;37.758;2023-05-10T16:31:39;3.30;;;1.70;;
75616;SDS011;64200;55.426;37.758;2023-05-10T16:36:40;3.35;;;1.85;;
75616;SDS011;64200;55.426;37.758;2023-05-10T16:41:47;5.15;;;2.20;;
75616;SDS011;64200;55.426;37.758;2023-05-10T16:46:48;8.18;;;3.67;;
75616;SDS011;64200;55.426;37.758;2023-05-10T16:51:48;13.45;;;3.95;;
75616;SDS011;64200;55.426;37.758;2023-05-10T16:56:49;8.30;;;2.47;;
75616;SDS011;64200;55.426;37.758;2023-05-10T17:01:49;10.70;;;2.90;;
75616;SDS011;64200;55.426;37.758;2023-05-10T17:06:52;11.38;;;4.30;;
75616;SDS011;64200;55.426;37.758;2023-05-10T17:11:52;18.10;;;6.00;;
75616;SDS011;64200;55.426;37.758;2023-05-10T17:16:53;10.65;;;4.53;;
75616;SDS011;64200;55.426;37.758;2023-05-10T17:21:54;9.52;;;2.65;;
75616;SDS011;64200;55.426;37.758;2023-05-10T17:26:55;8.02;;;3.20;;
75616;SDS011;64200;55.426;37.758;2023-05-10T17:31:56;5.47;;;2.97;;
75616;SDS011;64200;55.426;37.758;2023-05-10T17:36:58;8.27;;;3.55;;
75616;SDS011;64200;55.426;37.758;2023-05-10T17:41:58;9.57;;;4.55;;
75616;SDS011;64200;55.426;37.758;2023-05-10T17:47:00;12.32;;;5.72;;
75616;SDS011;64200;55.426;37.758;2023-05-10T17:52:00;9.50;;;5.22;;
75616;SDS011;64200;55.426;37.758;2023-05-10T17:57:02;6.55;;;2.83;;
75616;SDS011;64200;55.426;37.758;2023-05-10T18:02:03;7.50;;;3.58;;
75616;SDS011;64200;55.426;37.758;2023-05-10T18:07:04;7.32;;;3.15;;
75616;SDS011;64200;55.426;37.758;2023-05-10T18:12:05;7.30;;;2.95;;
75616;SDS011;64200;55.426;37.758;2023-05-10T18:17:06;18.50;;;5.18;;
75616;SDS011;64200;55.426;37.758;2023-05-10T18:22:06;7.63;;;2.72;;
75616;SDS011;64200;55.426;37.758;2023-05-10T18:27:07;7.35;;;3.33;;
75616;SDS011;64200;55.426;37.758;2023-05-10T18:32:08;7.93;;;3.00;;
75616;SDS011;64200;55.426;37.758;2023-05-10T18:37:09;5.00;;;2.20;;
75616;SDS011;64200;55.426;37.758;2023-05-10T18:42:11;8.13;;;4.18;;
75616;SDS011;64200;55.426;37.758;2023-05-10T18:47:12;5.07;;;2.75;;
75616;SDS011;64200;55.426;37.758;2023-05-10T18:52:15;3.38;;;2.30;;
75616;SDS011;64200;55.426;37.758;2023-05-10T18:57:16;6.53;;;3.15;;
75616;SDS011;64200;55.426;37.758;2023-05-10T19:02:16;4.68;;;2.65;;
75616;SDS011;64200;55.426;37.758;2023-05-10T19:07:17;7.55;;;3.83;;
75616;SDS011;64200;55.426;37.758;2023-05-10T19:12:18;7.47;;;2.85;;
75616;SDS011;64200;55.426;37.758;2023-05-10T19:17:18;4.57;;;2.65;;
75616;SDS011;64200;55.426;37.758;2023-05-10T19:22:19;6.38;;;2.33;;
75616;SDS011;64200;55.426;37.758;2023-05-10T19:27:20;6.05;;;2.05;;
75616;SDS011;64200;55.426;37.758;2023-05-10T19:32:21;9.15;;;2.33;;
75616;SDS011;64200;55.426;37.758;2023-05-10T19:37:22;4.90;;;2.10;;
75616;SDS011;64200;55.426;37.758;2023-05-10T19:42:23;5.47;;;2.50;;
75616;SDS011;64200;55.426;37.758;2023-05-10T19:47:23;4.07;;;1.90;;
75616;SDS011;64200;55.426;37.758;2023-05-10T19:52:24;5.50;;;2.70;;
75616;SDS011;64200;55.426;37.758;2023-05-10T19:57:24;6.30;;;2.25;;
75616;SDS011;64200;55.426;37.758;2023-05-10T20:02:26;5.60;;;2.60;;
75616;SDS011;64200;55.426;37.758;2023-05-10T20:07:27;7.60;;;3.20;;
75616;SDS011;64200;55.426;37.758;2023-05-10T20:12:27;5.63;;;2.22;;
75616;SDS011;64200;55.426;37.758;2023-05-10T20:17:37;7.38;;;2.90;;
75616;SDS011;64200;55.426;37.758;2023-05-10T20:22:39;5.05;;;2.33;;
75616;SDS011;64200;55.426;37.758;2023-05-10T20:27:39;6.90;;;2.55;;
75616;SDS011;64200;55.426;37.758;2023-05-10T20:32:40;4.23;;;2.50;;
75616;SDS011;64200;55.426;37.758;2023-05-10T20:43:37;5.10;;;2.88;;
75616;SDS011;64200;55.426;37.758;2023-05-10T20:48:38;8.50;;;3.80;;
75616;SDS011;64200;55.426;37.758;2023-05-10T20:53:38;6.25;;;2.40;;
75616;SDS011;64200;55.426;37.758;2023-05-10T20:58:39;6.00;;;3.10;;
75616;SDS011;64200;55.426;37.758;2023-05-10T21:03:40;10.00;;;4.90;;
75616;SDS011;64200;55.426;37.758;2023-05-10T21:08:40;4.40;;;3.30;;
75616;SDS011;64200;55.426;37.758;2023-05-10T21:13:40;5.50;;;2.43;;
75616;SDS011;64200;55.426;37.758;2023-05-10T21:18:41;8.02;;;3.83;;
75616;SDS011;64200;55.426;37.758;2023-05-10T21:23:42;3.73;;;2.07;;
75616;SDS011;64200;55.426;37.758;2023-05-10T21:28:45;5.57;;;2.63;;
75616;SDS011;64200;55.426;37.758;2023-05-10T21:33:46;5.40;;;3.15;;
75616;SDS011;64200;55.426;37.758;2023-05-10T21:38:46;4.13;;;2.20;;
75616;SDS011;64200;55.426;37.758;2023-05-10T21:43:49;5.50;;;2.60;;
75616;SDS011;64200;55.426;37.758;2023-05-10T21:48:50;8.93;;;3.15;;
75616;SDS011;64200;55.426;37.758;2023-05-10T21:53:50;4.93;;;2.40;;
75616;SDS011;64200;55.426;37.758;2023-05-10T21:58:51;5.82;;;2.97;;
75616;SDS011;64200;55.426;37.758;2023-05-10T22:03:51;9.43;;;3.40;;
75616;SDS011;64200;55.426;37.758;2023-05-10T22:08:52;13.50;;;4.47;;
75616;SDS011;64200;55.426;37.758;2023-05-10T22:13:52;9.53;;;4.33;;
75616;SDS011;64200;55.426;37.758;2023-05-10T22:18:53;4.50;;;2.92;;
75616;SDS011;64200;55.426;37.758;2023-05-10T22:23:53;6.05;;;3.50;;
75616;SDS011;64200;55.426;37.758;2023-05-10T22:28:54;7.00;;;3.00;;
75616;SDS011;64200;55.426;37.758;2023-05-10T22:33:54;4.67;;;3.50;;
75616;SDS011;64200;55.426;37.758;2023-05-10T22:38:55;7.28;;;3.30;;
75616;SDS011;64200;55.426;37.758;2023-05-10T22:43:56;4.88;;;2.90;;
75616;SDS011;64200;55.426;37.758;2023-05-10T22:48:57;7.77;;;3.73;;
75616;SDS011;64200;55.426;37.758;2023-05-10T22:53:58;7.97;;;3.70;;
75616;SDS011;64200;55.426;37.758;2023-05-10T22:58:58;9.33;;;3.83;;
75616;SDS011;64200;55.426;37.758;2023-05-10T23:03:59;9.55;;;3.55;;
75616;SDS011;64200;55.426;37.758;2023-05-10T23:08:59;5.40;;;3.70;;
75616;SDS011;64200;55.426;37.758;2023-05-10T23:14:00;7.43;;;3.60;;
75616;SDS011;64200;55.426;37.758;2023-05-10T23:19:00;9.88;;;4.10;;
75616;SDS011;64200;55.426;37.758;2023-05-10T23:24:01;8.63;;;3.90;;
75616;SDS011;64200;55.426;37.758;2023-05-10T23:29:01;8.87;;;3.83;;
75616;SDS011;64200;55.426;37.758;2023-05-10T23:34:02;9.65;;;3.88;;
75616;SDS011;64200;55.426;37.758;2023-05-10T23:39:03;8.55;;;3.70;;
75616;SDS011;64200;55.426;37.758;2023-05-10T23:44:04;20.27;;;8.63;;
75616;SDS011;64200;55.426;37.758;2023-05-10T23:49:04;11.33;;;4.40;;
75616;SDS011;64200;55.426;37.758;2023-05-10T23:54:09;8.80;;;3.75;;
75616;SDS011;64200;55.426;37.758;2023-05-10T23:59:09;8.57;;;3.73;;
